KCLM/CLM METAR and TAF weather

Enter ICAO airport designator
Station Type Date Time Source
KCLM METAR 2018/01/22 11:53 UTC NOAA

KCLM 221153Z AUTO 18006KT 9SM -RA BKN034 BKN050 04/04 A3004 RMK AO2 SLP176 P0007 60022 70080 T00440039 10056 20028 51024


Station Type Date Time Source
KCLM Decoded METAR 2018/01/22 11:53 UTC NOAA

PORT ANGELES FAIRCHILD INTERNATIONAL , WA, United States (KCLM) 48-07N 123-30W 85M
Jan 22, 2018 - 06:53 AM EST / 2018.01.22 1153 UTC
Wind: from the S (180 degrees) at 7 MPH (6 KT):0
Visibility: 9 mile(s):0
Sky conditions: mostly cloudy
Weather: light rain
Precipitation last hour: 0.07 inches
Temperature: 39.9 F (4.4 C)
Dew Point: 39.0 F (3.9 C)
Relative Humidity: 96%
Pressure (altimeter): 30.04 in. Hg (1017 hPa)
Pressure tendency: 0.07 inches (2.4 hPa) higher than three hours ago
ob: KCLM 221153Z AUTO 18006KT 9SM -RA BKN034 BKN050 04/04 A3004 RMK AO2 SLP176 P0007 60022 70080 T00440039 10056 20028 51024
cycle: 12

Station Type Date Time Source
KCLM TAF 2018/01/22 12:22 UTC NOAA

TAF KCLM 221120Z 2212/2312 16005KT 5SM -SHRA BR OVC030
FM221600 26008KT P6SM VCSH BKN050
FM222200 30005KT P6SM SCT040 BKN150
FM230300 VRB03KT P6SM BKN100
FM231000 VRB03KT P6SM OVC050


Example: see airport list